Tiempo atmosférico en la estación meteorológica de Valverde del Fresno, Cáceres (498 m.)



Fecha
DESCASC
Temp. máxima en grados centígrados (hora)
DESCASC
Temp. mínima en grados centígrados (hora)
DESCASC
Temp. media en grados centígrados
DESCASC
Racha de viento máxima en m/sg (hora)
DESCASC
Velocidad máxima media en intervalos de 10 minutos(hora)
DESCASC
Precipitaciones diarias en mm
DESCASC
Precipitaciones de 00:00 a 06:00 en mm
DESCASC
Precipitaciones de 06:00 a 12:00 en mm
DESCASC
Precipitaciones de 12:00 a 18:00 en mm
DESCASC
Precipitaciones de 18:00 a 24:00 en mm
DESCASC
23-06-2019 26.8 (17:50) 13.5 (06:40) 20.1 6.94 (13:30) 3.61 (14:30) 0 0 0 0 0
22-06-2019 30.2 (16:10) 15.4 (06:30) 22.8 10.28 (17:50) 5.83 (17:30) 0 0 0 0 0
21-06-2019 28.4 (18:10) 15.5 (06:40) 21.9 12.5 (19:20) 6.39 (09:40) 0 0 0 0 0
20-06-2019 26.8 (17:40) 15.1 (00:00) 20.9 10.28 (23:40) 5.56 (23:59) 0 0 0 0 0
19-06-2019 24.6 (19:10) 16.4 (00:00) 20.5 6.94 (18:10) 4.17 (20:30) 0 0 0 0 0
18-06-2019 23.9 (18:20) 10.5 (00:00) 17.2 11.67 (12:50) 6.11 (20:00) 0 0 0 0 0
17-06-2019 28.4 (15:00) 13.4 (00:00) 20.9 8.61 (15:10) 5 (14:20) 0 0 0 0 0
16-06-2019 29.1 (16:50) 14.2 (00:00) 21.7 8.06 (00:10) 4.17 (01:10) 0 0 0 0 0
15-06-2019 25.5 (17:50) 10 (00:00) 17.8 9.44 (09:20) 5.83 (09:20) 0 0 0 0 0
14-06-2019 21.4 (16:30) 7.8 (00:00) 14.6 11.39 (17:10) 6.11 (17:10) 0 0 0 0 0
13-06-2019 25.4 (17:50) 12.2 (00:00) 18.8 10.83 (17:30) 5.56 (09:10) 0 0 0 0 0
12-06-2019 25.2 (17:10) 12.3 (00:00) 18.8 11.11 (02:30) 6.39 (03:00) 0 0 0 0 0
11-06-2019 23.3 (18:20) 12.7 (00:00) 18 12.78 (09:50) 7.5 (00:30) 0 0 0 0 0
10-06-2019 25.2 (16:50) 13 (00:00) 19.1 13.89 (02:20) 7.22 (02:10) 0 0 0 0 0
09-06-2019 24.3 (17:00) 13.2 (00:00) 18.7 11.39 (22:50) 6.39 (23:59) 0 0 0 0 0
08-06-2019 26 (18:30) 12.5 (00:00) 19.3 12.5 (01:30) 6.39 (00:50) 0 0 0 0 0
07-06-2019 20.3 (18:10) 5.9 (00:00) 13.1 9.72 (14:40) 5.56 (23:59) 0 0 0 0 0
06-06-2019 19.3 (15:20) 6.8 (00:00) 13 12.22 (19:30) 6.94 (17:10) 2 0 0 0 2
05-06-2019 20.5 (16:00) 10 (00:00) 15.3 13.06 (00:20) 6.94 (00:50) 0 0 0 0 0
04-06-2019 23.6 (13:40) 11.8 (00:00) 17.7 12.78 (23:50) 6.67 (23:59) 0 0 0 0 0
03-06-2019 30.9 (15:30) 15.3 (00:00) 23.1 9.17 (17:50) 6.11 (19:00) 0 0 0 0 0
02-06-2019 33.9 (16:40) 23.8 (00:00) 28.9 10.28 (03:30) 4.72 (07:30) 0 0 0 0 0
01-06-2019 34.5 (17:10) 17.7 (00:00) 26.1 10.28 (23:20) 5.28 (23:59) 0 0 0 0 0
31-05-2019 33.5 (17:40) 16.2 (00:00) 24.9 6.39 (05:50) 3.61 (05:30) 0 0 0 0 0
30-05-2019 31.9 (17:30) 14.8 (00:00) 23.3 11.11 (01:10) 6.67 (01:10) 0 0 0 0 0
29-05-2019 29.4 (16:20) 15.2 (00:00) 22.3 15.56 (03:40) 8.06 (03:00) 0 0 0 0 0
28-05-2019 27.8 (18:00) 16.8 (00:00) 22.3 13.89 (14:20) 7.78 (09:30) 0 0 0 0 0
27-05-2019 28.9 (17:00) 19.5 (00:00) 24.2 12.22 (07:30) 7.5 (07:30) 0 0 0 0 0
26-05-2019 29.2 (18:50) 14.9 (00:00) 22.1 11.11 (14:30) 6.39 (13:40) 0 0 0 0 0
25-05-2019 25.9 (16:20) 13.3 (00:00) 19.6 14.72 (06:10) 8.33 (01:00) 0 0 0 0 0

Gráficas

Temp. máximas Temp. mínimas Temp. medias Precipitaciones Rachas de viento máximas Velocidades máximas media en intervalos de 10 minutos

Datos horarios

Fecha y hora oficial Temperatura (ºC) Velocidad del viento (km/h) Dirección del viento Racha (km/h) Dirección de racha Precipitación (mm) Presión (hPa) Tendencia (hPa) Humedad (%)
2019-06-23 23:00:00 22.7 3 Oeste 13 Oeste 0 -- -- 63
2019-06-23 22:00:00 24 0 Calma 21 Sudoeste 0 -- -- 56
2019-06-23 21:00:00 24.8 12 Sudoeste 18 Sudoeste 0 -- -- 54
2019-06-23 20:00:00 25.7 9 Oeste 23 Oeste 0 -- -- 47
2019-06-23 19:00:00 25.8 12 Oeste 18 Oeste 0 -- -- 46
2019-06-23 18:00:00 26.5 12 Oeste 21 Sudoeste 0 -- -- 41
2019-06-23 17:00:00 26 10 Oeste 22 Sudoeste 0 -- -- 44
2019-06-23 16:00:00 25.5 7 Sudoeste 17 Noroeste 0 -- -- 45
2019-06-23 15:00:00 25 9 Oeste 22 Oeste 0 -- -- 45
2019-06-23 14:00:00 25.7 10 Oeste 25 Sudoeste 0 -- -- 40
2019-06-23 13:00:00 24 5 Sur 20 Sur 0 -- -- 49
2019-06-23 12:00:00 23.8 10 Sur 19 Sur 0 -- -- 46
2019-06-23 11:00:00 21.3 3 Sudoeste 8 Sur 0 -- -- 50
2019-06-23 10:00:00 19.3 2 Nordeste 5 Nordeste 0 -- -- 44
2019-06-23 09:00:00 18 0 Calma 5 Nordeste 0 -- -- 47
2019-06-23 08:00:00 15.9 0 Calma 5 Oeste 0 -- -- 53
2019-06-23 07:00:00 14.2 3 Norte 8 Oeste 0 -- -- 55
2019-06-23 06:00:00 15.8 4 Sudoeste 9 Norte 0 -- -- 50
2019-06-23 05:00:00 15.8 7 Norte 9 Norte 0 -- -- 51
2019-06-23 04:00:00 16.9 5 Norte 9 Noroeste 0 -- -- 47
2019-06-23 03:00:00 16.6 7 Norte 9 Norte 0 -- -- 49
2019-06-23 02:00:00 17.3 3 Oeste 9 Norte 0 -- -- 37
2019-06-23 01:00:00 18.6 3 Norte 9 Noroeste 0 -- -- 35
2019-06-23 00:00:00 18.6 4 Noroeste 12 Norte 0 -- -- 31
2019-06-22 23:00:00 20.3 6 Norte 10 Norte 0 -- -- 27
2019-06-22 22:00:00 24.8 5 Noroeste 20 Sudoeste 0 -- -- 19
2019-06-22 21:00:00 27.6 13 Oeste 24 Sudoeste 0 -- -- 15
2019-06-22 20:00:00 28.9 16 Sudoeste 28 Sudoeste 0 -- -- 16
2019-06-22 19:00:00 29.8 17 Sudoeste 35 Noroeste 0 -- -- 16
2019-06-22 18:00:00 29.6 17 Sudoeste 37 Sudoeste 0 -- -- 17
2019-06-22 17:00:00 30 15 Sudoeste 30 Sudoeste 0 -- -- 22
2019-06-22 16:00:00 30.1 12 Sudoeste 32 Sur 0 -- -- 25
2019-06-22 15:00:00 29.4 13 Sudoeste 31 Sudoeste 0 -- -- 22
2019-06-22 14:00:00 29.1 14 Sur 31 Sudoeste 0 -- -- 23
2019-06-22 13:00:00 27.2 11 Sur 22 Sur 0 -- -- 33
2019-06-22 12:00:00 26.8 14 Sudeste 29 Sudeste 0 -- -- 35
2019-06-22 11:00:00 25.9 14 Sudeste 27 Este 0 -- -- 37
2019-06-22 10:00:00 24.2 8 Sur 17 Sudoeste 0 -- -- 42
2019-06-22 09:00:00 22.5 3 Sudeste 8 Oeste 0 -- -- 44
2019-06-22 08:00:00 18.1 3 Norte 12 Norte 0 -- -- 57
2019-06-22 07:00:00 15.7 5 Norte 9 Noroeste 0 -- -- 62
2019-06-22 06:00:00 16.7 0 Calma 6 Norte 0 -- -- 60
2019-06-22 05:00:00 17.6 0 Calma 4 Norte 0 -- -- 59
2019-06-22 04:00:00 18.9 3 Norte 8 Norte 0 -- -- 54
2019-06-22 03:00:00 19.6 6 Oeste 11 Sudoeste 0 -- -- 56
2019-06-22 02:00:00 20.6 4 Sudoeste 12 Sur 0 -- -- 55
2019-06-22 01:00:00 20.9 4 Sudoeste 19 Norte 0 -- -- 56
2019-06-22 00:00:00 21.7 8 Nordeste 28 Norte 0 -- -- 54
2019-06-21 23:00:00 22.3 14 Norte 33 Norte 0 -- -- 48
2019-06-21 22:00:00 24.1 6 Noroeste 18 Norte 0 -- -- 40
2019-06-21 21:00:00 26.7 6 Norte 19 Nordeste 0 -- -- 30
2019-06-21 20:00:00 27.7 8 Norte 45 Nordeste 0 -- -- 28
2019-06-21 19:00:00 27.9 11 Norte 26 Nordeste 0 -- -- 28
2019-06-21 18:00:00 28.2 10 Nordeste 27 Nordeste 0 -- -- 28
2019-06-21 17:00:00 28 9 Nordeste 26 Norte 0 -- -- 28
2019-06-21 16:00:00 27.7 9 Norte 23 Nordeste 0 -- -- 31
2019-06-21 15:00:00 26.8 10 Nordeste 27 Nordeste 0 -- -- 31
2019-06-21 14:00:00 25.4 6 Nordeste 27 Nordeste 0 -- -- 36
2019-06-21 13:00:00 24.9 21 Nordeste 32 Nordeste 0 -- -- 39
2019-06-21 12:00:00 23.7 13 Norte 37 Nordeste 0 -- -- 45
2019-06-21 11:00:00 21.7 19 Nordeste 40 Norte 0 -- -- 52
2019-06-21 10:00:00 19.8 16 Nordeste 34 Nordeste 0 -- -- 59
2019-06-21 09:00:00 18.3 16 Norte 36 Nordeste 0 -- -- 65
2019-06-21 08:00:00 17.3 20 Nordeste 38 Nordeste 0 -- -- 69
2019-06-21 07:00:00 15.8 10 Nordeste 27 Norte 0 -- -- 75
2019-06-21 06:00:00 15.7 17 Norte 39 Norte 0 -- -- 74
2019-06-21 05:00:00 15.9 18 Norte 42 Norte 0 -- -- 73
2019-06-21 04:00:00 16.2 14 Norte 43 Norte 0 -- -- 71
2019-06-21 03:00:00 16.1 18 Norte 39 Norte 0 -- -- 70
2019-06-21 02:00:00 16.4 22 Norte 39 Norte 0 -- -- 68
2019-06-21 01:00:00 17.1 18 Norte 45 Norte 0 -- -- 65
2019-06-21 00:00:00 17.3 20 Norte 37 Norte 0 -- -- 67
2019-06-20 23:00:00 18.2 16 Norte 36 Norte 0 -- -- 63
2019-06-20 22:00:00 20 13 Norte 26 Norte 0 -- -- 58
2019-06-20 21:00:00 23.1 12 Oeste 25 Sudoeste 0 -- -- 47
2019-06-20 20:00:00 24.6 16 Sudoeste 29 Oeste 0 -- -- 44
2019-06-20 19:00:00 25.8 15 Sudoeste 27 Sudoeste 0 -- -- 38
2019-06-20 18:00:00 26.5 12 Sudeste 21 Sudeste 0 -- -- 34
2019-06-20 17:00:00 26 10 Oeste 24 Sudoeste 0 -- -- 36
2019-06-20 16:00:00 26.2 7 Oeste 21 Sudeste 0 -- -- 37
2019-06-20 15:00:00 25.7 9 Sudeste 21 Sudeste 0 -- -- 40
2019-06-20 14:00:00 24.8 11 Sur 20 Sur 0 -- -- 44
2019-06-20 13:00:00 22.2 6 Sudoeste 16 Sur 0 -- -- 54
2019-06-20 12:00:00 21.3 8 Sur 15 Sur 0 -- -- 58
2019-06-20 11:00:00 19.9 3 Sur 7 Sudoeste 0 -- -- 63
2019-06-20 10:00:00 18.3 3 Sudoeste 4 Sudeste 0 -- -- 71
2019-06-20 09:00:00 16.4 2 Sudoeste 5 Sur 0 -- -- 77
2019-06-20 08:00:00 15.3 2 Oeste 4 Sur 0 -- -- 81
2019-06-20 07:00:00 15.9 3 Norte 9 Este 0 -- -- 77
2019-06-20 06:00:00 15.8 5 Oeste 6 Oeste 0 -- -- 78
2019-06-20 05:00:00 15.5 3 Oeste 10 Nordeste 0 -- -- 78
2019-06-20 04:00:00 16.1 5 Nordeste 14 Nordeste 0 -- -- 77
2019-06-20 03:00:00 16.5 3 Norte 7 Noroeste 0 -- -- 75
2019-06-20 02:00:00 16.6 4 Nordeste 13 Noroeste 0 -- -- 76
2019-06-20 01:00:00 17.7 5 Noroeste 10 Noroeste 0 -- -- 71
2019-06-20 00:00:00 18.5 7 Norte 15 Norte 0 -- -- 69
2019-06-19 23:00:00 19.5 6 Norte 12 Noroeste 0 -- -- 64
2019-06-19 22:00:00 21.8 5 Oeste 18 Oeste 0 -- -- 57
2019-06-19 21:00:00 23.2 11 Sudoeste 23 Oeste 0 -- -- 49
2019-06-19 20:00:00 24.6 11 Oeste 22 Sudoeste 0 -- -- 45
2019-06-19 19:00:00 24.3 13 Sudoeste 25 Oeste 0 -- -- 46
2019-06-19 18:00:00 23.6 9 Oeste 21 Sudoeste 0 -- -- 48
2019-06-19 17:00:00 23.5 9 Oeste 23 Oeste 0 -- -- 51
2019-06-19 16:00:00 22.9 8 Oeste 22 Sudoeste 0 -- -- 50
2019-06-19 15:00:00 21.5 5 Oeste 16 Sudoeste 0 -- -- 54
2019-06-19 14:00:00 20.9 8 Sudoeste 21 Sudoeste 0 -- -- 56
2019-06-19 13:00:00 20.3 10 Sudoeste 18 Sudoeste 0 -- -- 59
2019-06-19 12:00:00 19.4 6 Sudoeste 16 Sudoeste 0 -- -- 65
2019-06-19 11:00:00 18.7 5 Sur 15 Oeste 0 -- -- 69
2019-06-19 10:00:00 17.7 8 Oeste 15 Oeste 0 -- -- 75
2019-06-19 09:00:00 17.2 5 Oeste 10 Oeste 0 -- -- 79
2019-06-19 08:00:00 16.4 0 Calma 4 Sudoeste 0 -- -- 86
2019-06-19 07:00:00 16.4 2 Sur 10 Sudoeste 0 -- -- 85
2019-06-19 06:00:00 16.4 6 Sudoeste 12 Sudoeste 0 -- -- 87
2019-06-19 05:00:00 16.5 6 Sudoeste 14 Sudoeste 0 -- -- 88
2019-06-19 04:00:00 16.5 7 Sudoeste 17 Sudoeste 0 -- -- 87
2019-06-19 03:00:00 17.1 5 Sudoeste 17 Sudoeste 0 -- -- 79
2019-06-19 02:00:00 17 2 Oeste 5 Sudoeste 0 -- -- 75
2019-06-19 01:00:00 16.9 0 Calma 5 Noroeste 0 -- -- 74
2019-06-19 00:00:00 17.3 0 Calma 8 Oeste 0 -- -- 70
2019-06-18 23:00:00 18.3 3 Norte 16 Oeste 0 -- -- 66
2019-06-18 22:00:00 20 10 Oeste 31 Oeste 0 -- -- 60
2019-06-18 21:00:00 22.4 18 Oeste 35 Oeste 0 -- -- 48
2019-06-18 20:00:00 23.6 22 Sudoeste 35 Sudoeste 0 -- -- 43
2019-06-18 19:00:00 22.7 13 Sudoeste 35 Sur 0 -- -- 52
2019-06-18 18:00:00 23.4 19 Sudoeste 36 Sudoeste 0 -- -- 49
2019-06-18 17:00:00 22.2 14 Sudoeste 35 Sur 0 -- -- 56
2019-06-18 16:00:00 22.1 16 Sudoeste 35 Oeste 0 -- -- 52
2019-06-18 15:00:00 21.9 18 Sur 30 Sur 0 -- -- 52
2019-06-18 14:00:00 18 10 Sudoeste 27 Sudoeste 0 -- -- 75
2019-06-18 13:00:00 18.2 15 Sudoeste 42 Sur 0 -- -- 72
2019-06-18 12:00:00 18.9 9 Sudeste 23 Sur 0 -- -- 59
2019-06-18 11:00:00 19.5 9 Sudeste 18 Sudoeste 0 -- -- 51
2019-06-18 10:00:00 18.2 5 Sur 13 Sudoeste 0 -- -- 51
2019-06-18 09:00:00 16.8 3 Este 5 Este 0 -- -- 47
2019-06-18 08:00:00 12.5 0 Calma 9 Norte 0 -- -- 58
2019-06-18 07:00:00 11 4 Noroeste 10 Norte 0 -- -- 59
2019-06-18 06:00:00 11.9 7 Norte 13 Norte 0 -- -- 54
2019-06-18 05:00:00 12.9 10 Norte 12 Norte 0 -- -- 58
2019-06-18 04:00:00 13.8 7 Norte 10 Norte 0 -- -- 62
2019-06-18 03:00:00 15.1 5 Norte 12 Norte 0 -- -- 59
2019-06-18 02:00:00 16.7 5 Norte 10 Oeste 0 -- -- 53
2019-06-18 01:00:00 17.8 3 Noroeste 9 Norte 0 -- -- 48
2019-06-18 00:00:00 19.6 2 Oeste 10 Norte 0 -- -- 44
2019-06-17 23:00:00 21.3 5 Norte 8 Norte 0 -- -- 42
2019-06-17 22:00:00 23.3 5 Noroeste 8 Norte 0 -- -- 37
2019-06-17 21:00:00 25 3 Norte 21 Oeste 0 -- -- 32
2019-06-17 20:00:00 26.1 9 Oeste 24 Oeste 0 -- -- 30
2019-06-17 19:00:00 27.4 9 Sur 24 Sudoeste 0 -- -- 26
2019-06-17 18:00:00 27.9 12 Oeste 26 Oeste 0 -- -- 26
2019-06-17 17:00:00 27.9 13 Sur 30 Sudoeste 0 -- -- 27
2019-06-17 16:00:00 27.6 13 Sudoeste 31 Sur 0 -- -- 23
2019-06-17 15:00:00 28.4 13 Sur 31 Sur 0 -- -- 24
2019-06-17 14:00:00 26.8 12 Sur 27 Sudeste 0 -- -- 27
2019-06-17 13:00:00 25.1 15 Sur 30 Sudoeste 0 -- -- 33
2019-06-17 12:00:00 23.9 10 Sur 22 Sudoeste 0 -- -- 34
2019-06-17 11:00:00 21.8 5 Sudoeste 12 Sudoeste 0 -- -- 38
2019-06-17 10:00:00 19.8 4 Sur 9 Sur 0 -- -- 47
2019-06-17 09:00:00 15.9 7 Sudoeste 10 Sudoeste 0 -- -- 54
2019-06-17 08:00:00 14.8 0 Calma 10 Norte 0 -- -- 48
2019-06-17 07:00:00 13.7 5 Norte 9 Norte 0 -- -- 49
2019-06-17 06:00:00 14.5 6 Noroeste 14 Norte 0 -- -- 49
2019-06-17 05:00:00 14.8 9 Norte 12 Noroeste 0 -- -- 52
2019-06-17 04:00:00 13.7 6 Norte 9 Nordeste 0 -- -- 63
2019-06-17 03:00:00 15 5 Norte 9 Norte 0 -- -- 60
2019-06-17 02:00:00 16 4 Norte 11 Norte 0 -- -- 57
2019-06-17 01:00:00 17 3 Norte 12 Oeste 0 -- -- 58
2019-06-17 00:00:00 19.3 7 Norte 11 Norte 0 -- -- 49
2019-06-16 23:00:00 20.1 9 Norte 11 Norte 0 -- -- 40
2019-06-16 22:00:00 24.6 4 Oeste 23 Oeste 0 -- -- 31
2019-06-16 21:00:00 26.9 10 Oeste 28 Sudoeste 0 -- -- 27
2019-06-16 20:00:00 28.6 8 Sudoeste 22 Sudoeste 0 -- -- 22
2019-06-16 19:00:00 28.7 9 Oeste 24 Sudoeste 0 -- -- 21
2019-06-16 18:00:00 28.3 10 Sudoeste 27 Sudeste 0 -- -- 20
2019-06-16 17:00:00 28.9 7 Sur 24 Sudeste 0 -- -- 19
2019-06-16 16:00:00 28.2 15 Sur 23 Sur 0 -- -- 21
2019-06-16 15:00:00 26.9 9 Sudeste 21 Sudeste 0 -- -- 25
2019-06-16 14:00:00 25.7 11 Sur 23 Sudeste 0 -- -- 26
2019-06-16 13:00:00 25.5 11 Sudeste 26 Sudeste 0 -- -- 26
2019-06-16 12:00:00 24.3 12 Sur 21 Sur 0 -- -- 29
2019-06-16 11:00:00 23.3 4 Sur 9 Sur 0 -- -- 34
2019-06-16 10:00:00 20.8 3 Sudeste 6 Sur 0 -- -- 40
2019-06-16 09:00:00 18.1 2 Sur 5 Sudoeste 0 -- -- 50
2019-06-16 08:00:00 15.8 2 Oeste 5 Oeste 0 -- -- 52
2019-06-16 07:00:00 14.8 3 Sudoeste 5 Norte 0 -- -- 52
2019-06-16 06:00:00 15.6 0 Calma 8 Noroeste 0 -- -- 51
2019-06-16 05:00:00 16.3 3 Noroeste 10 Norte 0 -- -- 49
2019-06-16 04:00:00 17 4 Norte 17 Nordeste 0 -- -- 48
2019-06-16 03:00:00 17.3 3 Noroeste 11 Noroeste 0 -- -- 48
2019-06-16 02:00:00 17.8 8 Norte 28 Norte 0 -- -- 48
2019-06-16 01:00:00 18.2 13 Norte 29 Norte 0 -- -- 48
2019-06-16 00:00:00 18.9 16 Norte 33 Norte 0 -- -- 45
2019-06-15 23:00:00 19.9 7 Norte 24 Nordeste 0 -- -- 37
2019-06-15 22:00:00 20.7 8 Norte 12 Norte 0 -- -- 39
2019-06-15 21:00:00 24.1 3 Oeste 13 Sur 0 -- -- 31
2019-06-15 20:00:00 25 4 Noroeste 18 Oeste 0 -- -- 30
2019-06-15 19:00:00 25 8 Sur 19 Sudeste 0 -- -- 29
2019-06-15 18:00:00 25.4 10 Sudoeste 22 Sudeste 0 -- -- 28
2019-06-15 17:00:00 24.7 10 Sur 21 Sudoeste 0 -- -- 29
2019-06-15 16:00:00 24.4 14 Sur 21 Sur 0 -- -- 30
2019-06-15 15:00:00 23.1 10 Este 23 Este 0 -- -- 32
2019-06-15 14:00:00 21.9 9 Sudoeste 19 Sur 0 -- -- 35
2019-06-15 13:00:00 20.8 10 Sur 18 Sur 0 -- -- 37
2019-06-15 12:00:00 20 8 Sudeste 17 Sur 0 -- -- 39
2019-06-15 11:00:00 18.6 5 Este 21 Sudeste 0 -- -- 44
2019-06-15 10:00:00 17 4 Este 34 Nordeste 0 -- -- 48
2019-06-15 09:00:00 14.5 14 Nordeste 31 Nordeste 0 -- -- 59
2019-06-15 08:00:00 12.5 17 Nordeste 30 Nordeste 0 -- -- 65
2019-06-15 07:00:00 11 11 Nordeste 25 Nordeste 0 -- -- 71
2019-06-15 06:00:00 10.9 7 Norte 15 Norte 0 -- -- 71
2019-06-15 05:00:00 10 2 Sudoeste 14 Sudeste 0 -- -- 72
2019-06-15 04:00:00 10.9 4 Nordeste 9 Norte 0 -- -- 70
2019-06-15 03:00:00 10.7 3 Sudoeste 9 Sudoeste 0 -- -- 70
2019-06-15 02:00:00 12 3 Oeste 15 Oeste 0 -- -- 66
2019-06-15 01:00:00 11.6 4 Noroeste 9 Norte 0 -- -- 66
2019-06-15 00:00:00 13.1 3 Oeste 9 Noroeste 0 -- -- 61
2019-06-14 23:00:00 14.4 6 Oeste 14 Oeste 0 -- -- 57
2019-06-14 22:00:00 15.8 10 Noroeste 19 Noroeste 0 -- -- 53
2019-06-14 21:00:00 16.5 5 Noroeste 31 Oeste 0 -- -- 51
2019-06-14 20:00:00 18.2 17 Oeste 32 Oeste 0 -- -- 42
2019-06-14 19:00:00 20 19 Oeste 39 Oeste 0 -- -- 37
2019-06-14 18:00:00 20.3 13 Oeste 41 Sur 0 -- -- 35
2019-06-14 17:00:00 20.3 18 Oeste 34 Sudoeste 0 -- -- 34
2019-06-14 16:00:00 20.8 16 Oeste 36 Sudoeste 0 -- -- 32
2019-06-14 15:00:00 19.7 11 Sudoeste 31 Sudoeste 0 -- -- 37
2019-06-14 14:00:00 18.8 13 Sudoeste 28 Oeste 0 -- -- 41
2019-06-14 13:00:00 18.9 12 Sur 21 Sudeste 0 -- -- 44
2019-06-14 12:00:00 18.1 9 Sudeste 16 Sur 0 -- -- 47
2019-06-14 11:00:00 16.9 9 Sudeste 19 Sudeste 0 -- -- 51
2019-06-14 10:00:00 14 5 Sudoeste 11 Sudoeste 0 -- -- 61
2019-06-14 09:00:00 12.1 7 Sur 12 Sur 0 -- -- 66
2019-06-14 08:00:00 9.6 0 Calma 9 Este 0 -- -- 75
2019-06-14 07:00:00 8.1 6 Norte 9 Norte 0 -- -- 79
2019-06-14 06:00:00 9.5 6 Norte 8 Norte 0 -- -- 74
2019-06-14 05:00:00 10.1 2 Noroeste 12 Sur 0 -- -- 71
2019-06-14 04:00:00 11.8 3 Sudoeste 8 Norte 0 -- -- 64
2019-06-14 03:00:00 13.1 3 Noroeste 5 Oeste 0 -- -- 60
2019-06-14 02:00:00 14.2 6 Norte 23 Norte 0 -- -- 56
2019-06-14 01:00:00 14.8 13 Norte 31 Norte 0 -- -- 55
2019-06-14 00:00:00 15.7 18 Norte 37 Norte 0 -- -- 53
2019-06-13 23:00:00 16.9 18 Norte 33 Norte 0 -- -- 49
2019-06-13 22:00:00 18.9 13 Norte 30 Norte 0 -- -- 43
2019-06-13 21:00:00 22.4 9 Noroeste 22 Oeste 0 -- -- 36
2019-06-13 20:00:00 24.2 7 Sur 26 Sudoeste 0 -- -- 27
2019-06-13 19:00:00 24.9 10 Sudoeste 27 Oeste 0 -- -- 25
2019-06-13 18:00:00 24.9 9 Sudoeste 39 Sur 0 -- -- 24
2019-06-13 17:00:00 24.8 13 Sur 28 Sur 0 -- -- 24
2019-06-13 16:00:00 24.7 13 Sur 24 Sudoeste 0 -- -- 25
2019-06-13 15:00:00 23.4 9 Sur 23 Sudoeste 0 -- -- 28
2019-06-13 14:00:00 22.4 8 Sur 24 Sur 0 -- -- 30
2019-06-13 13:00:00 20.8 5 Oeste 19 Sudoeste 0 -- -- 34
2019-06-13 12:00:00 20.4 7 Sur 16 Sudeste 0 -- -- 37
2019-06-13 11:00:00 18.7 6 Nordeste 21 Nordeste 0 -- -- 42
2019-06-13 10:00:00 17.4 13 Nordeste 32 Nordeste 0 -- -- 47
2019-06-13 09:00:00 15.4 15 Nordeste 30 Nordeste 0 -- -- 53
2019-06-13 08:00:00 13.6 12 Norte 23 Norte 0 -- -- 59
2019-06-13 07:00:00 12.4 8 Norte 18 Norte 0 -- -- 61
2019-06-13 06:00:00 12.6 8 Nordeste 28 Norte 0 -- -- 62
2019-06-13 05:00:00 13.1 9 Norte 28 Norte 0 -- -- 61
2019-06-13 04:00:00 13.6 8 Norte 32 Noroeste 0 -- -- 59
2019-06-13 03:00:00 14.3 12 Norte 30 Norte 0 -- -- 57
2019-06-13 02:00:00 15.3 12 Norte 35 Norte 0 -- -- 53
2019-06-13 01:00:00 15.5 14 Norte 34 Norte 0 -- -- 53
2019-06-13 00:00:00 16.2 17 Norte 40 Noroeste 0 -- -- 51
2019-06-12 23:00:00 17.4 18 Norte 35 Norte 0 -- -- 47
2019-06-12 22:00:00 19.5 15 Norte 30 Norte 0 -- -- 39
2019-06-12 21:00:00 23.4 4 Noroeste 14 Noroeste 0 -- -- 20
2019-06-12 20:00:00 24.4 7 Sudoeste 22 Oeste 0 -- -- 18
2019-06-12 19:00:00 24.7 11 Sudoeste 31 Sudoeste 0 -- -- 17
2019-06-12 18:00:00 24.9 13 Sur 30 Oeste 0 -- -- 18
2019-06-12 17:00:00 25.1 11 Sur 24 Sudoeste 0 -- -- 20
2019-06-12 16:00:00 24.1 6 Noroeste 24 Sudeste 0 -- -- 21
2019-06-12 15:00:00 23.3 6 Sudoeste 22 Sudoeste 0 -- -- 21
2019-06-12 14:00:00 22.4 8 Sudeste 18 Este 0 -- -- 25
2019-06-12 13:00:00 21.7 6 Sur 19 Sudoeste 0 -- -- 28
2019-06-12 12:00:00 20.2 4 Oeste 17 Este 0 -- -- 32
2019-06-12 11:00:00 19.7 7 Este 16 Este 0 -- -- 33
2019-06-12 10:00:00 18.1 4 Este 14 Este 0 -- -- 37
2019-06-12 09:00:00 16.1 4 Sudeste 20 Nordeste 0 -- -- 40
2019-06-12 08:00:00 13.5 2 Oeste 28 Nordeste 0 -- -- 44
2019-06-12 07:00:00 12.4 14 Nordeste 30 Nordeste 0 -- -- 46
2019-06-12 06:00:00 12.7 5 Norte 33 Nordeste 0 -- -- 46
2019-06-12 05:00:00 13.2 7 Norte 29 Norte 0 -- -- 45
2019-06-12 04:00:00 13.6 19 Norte 38 Norte 0 -- -- 46
2019-06-12 03:00:00 14.1 23 Norte 40 Norte 0 -- -- 45
2019-06-12 02:00:00 14.6 19 Norte 36 Norte 0 -- -- 44
2019-06-12 01:00:00 15.3 19 Norte 33 Norte 0 -- -- 43
2019-06-12 00:00:00 16.5 17 Norte 32 Norte 0 -- -- 39
2019-06-11 23:00:00 16.6 9 Norte 18 Norte 0 -- -- 35
2019-06-11 22:00:00 18.7 9 Norte 17 Noroeste 0 -- -- 31
2019-06-11 21:00:00 21.6 8 Norte 33 Nordeste 0 -- -- 22
2019-06-11 20:00:00 22.6 17 Nordeste 35 Nordeste 0 -- -- 20
2019-06-11 19:00:00 23.2 15 Norte 31 Nordeste 0 -- -- 21
2019-06-11 18:00:00 23.2 23 Nordeste 40 Nordeste 0 -- -- 22
2019-06-11 17:00:00 22.6 19 Nordeste 40 Norte 0 -- -- 23
2019-06-11 16:00:00 21.9 19 Norte 45 Norte 0 -- -- 25
2019-06-11 15:00:00 21.6 20 Norte 41 Nordeste 0 -- -- 28
2019-06-11 14:00:00 21.1 17 Norte 44 Norte 0 -- -- 31
2019-06-11 13:00:00 19.4 21 Norte 41 Nordeste 0 -- -- 34
2019-06-11 12:00:00 18.6 18 Norte 35 Norte 0 -- -- 40
2019-06-11 11:00:00 17.9 15 Nordeste 43 Nordeste 0 -- -- 45
2019-06-11 10:00:00 15.9 21 Norte 46 Nordeste 0 -- -- 51
2019-06-11 09:00:00 14.7 15 Norte 36 Norte 0 -- -- 59
2019-06-11 08:00:00 13.8 7 Nordeste 29 Norte 0 -- -- 65
2019-06-11 07:00:00 12.7 10 Noroeste 25 Noroeste 0 -- -- 69
2019-06-11 06:00:00 13 6 Nordeste 33 Nordeste 0 -- -- 66
2019-06-11 05:00:00 13.7 9 Sudeste 32 Norte 0 -- -- 61
2019-06-11 04:00:00 14.2 5 Sudeste 36 Sudeste 0 -- -- 57
2019-06-11 03:00:00 14.7 9 Nordeste 25 Nordeste 0 -- -- 52
2019-06-11 02:00:00 15.3 6 Sudoeste 30 Norte 0 -- -- 50
2019-06-11 01:00:00 16.2 15 Norte 43 Norte 0 -- -- 48
2019-06-11 00:00:00 16.4 13 Norte 33 Norte 0 -- -- 51
2019-06-10 23:00:00 17.2 18 Norte 40 Norte 0 -- -- 52
2019-06-10 22:00:00 18.9 15 Noroeste 33 Noroeste 0 -- -- 47
2019-06-10 21:00:00 21.3 16 Noroeste 33 Noroeste 0 -- -- 40
2019-06-10 20:00:00 23.6 13 Noroeste 24 Noroeste 0 -- -- 29
2019-06-10 19:00:00 24.8 10 Noroeste 31 Noroeste 0 -- -- 28
2019-06-10 18:00:00 24.8 11 Noroeste 26 Noroeste 0 -- -- 29
2019-06-10 17:00:00 25 10 Noroeste 32 Noroeste 0 -- -- 28
2019-06-10 16:00:00 24.3 15 Noroeste 27 Norte 0 -- -- 25
2019-06-10 15:00:00 23.6 12 Noroeste 30 Norte 0 -- -- 28
2019-06-10 14:00:00 22.4 14 Norte 27 Nordeste 0 -- -- 29
2019-06-10 13:00:00 21.4 13 Noroeste 26 Nordeste 0 -- -- 34
2019-06-10 12:00:00 20.3 10 Norte 31 Norte 0 -- -- 39
2019-06-10 11:00:00 19.2 12 Norte 28 Norte 0 -- -- 42
2019-06-10 10:00:00 17.6 8 Nordeste 25 Norte 0 -- -- 48
2019-06-10 09:00:00 16.3 5 Este 22 Este 0 -- -- 53
2019-06-10 08:00:00 14.3 5 Sudeste 18 Nordeste 0 -- -- 61
2019-06-10 07:00:00 13.2 5 Nordeste 27 Este 0 -- -- 65
2019-06-10 06:00:00 13.4 5 Sudeste 23 Norte 0 -- -- 63
2019-06-10 05:00:00 13.6 8 Nordeste 27 Nordeste 0 -- -- 63
2019-06-10 04:00:00 14.3 10 Nordeste 35 Norte 0 -- -- 60
2019-06-10 03:00:00 14.6 13 Norte 50 Norte 0 -- -- 59
2019-06-10 02:00:00 14.6 23 Norte 42 Norte 0 -- -- 59
2019-06-10 01:00:00 15.2 22 Norte 41 Norte 0 -- -- 57
2019-06-10 00:00:00 15.9 23 Norte 41 Norte 0 -- -- 56
2019-06-09 23:00:00 16.9 20 Norte 41 Norte 0 -- -- 53
2019-06-09 22:00:00 18.1 16 Noroeste 36 Noroeste 0 -- -- 49
2019-06-09 21:00:00 20 18 Noroeste 32 Norte 0 -- -- 44
2019-06-09 20:00:00 21.3 13 Noroeste 36 Noroeste 0 -- -- 39
2019-06-09 19:00:00 23.1 11 Noroeste 27 Noroeste 0 -- -- 34
2019-06-09 18:00:00 23.8 11 Noroeste 33 Noroeste 0 -- -- 31
2019-06-09 17:00:00 24.3 15 Norte 27 Noroeste 0 -- -- 31
2019-06-09 16:00:00 23 14 Noroeste 28 Noroeste 0 -- -- 32
2019-06-09 15:00:00 23.2 10 Noroeste 30 Noroeste 0 -- -- 32
2019-06-09 14:00:00 22.8 16 Noroeste 29 Noroeste 0 -- -- 30
2019-06-09 13:00:00 22 14 Noroeste 30 Noroeste 0 -- -- 31
2019-06-09 12:00:00 20.7 5 Nordeste 22 Nordeste 0 -- -- 32
2019-06-09 11:00:00 20 14 Nordeste 27 Nordeste 0 -- -- 35
2019-06-09 10:00:00 17.8 15 Norte 32 Norte 0 -- -- 34
2019-06-09 09:00:00 15.9 13 Norte 36 Norte 0 -- -- 44
2019-06-09 08:00:00 13.8 18 Norte 35 Norte 0 -- -- 55
2019-06-09 07:00:00 13.2 15 Norte 31 Norte 0 -- -- 63
2019-06-09 06:00:00 13.4 19 Norte 35 Norte 0 -- -- 64
2019-06-09 05:00:00 14 5 Norte 22 Norte 0 -- -- 64
2019-06-09 04:00:00 15.1 10 Norte 22 Nordeste 0 -- -- 60
2019-06-09 03:00:00 15.8 8 Nordeste 26 Nordeste 0 -- -- 59
2019-06-09 02:00:00 15.5 10 Norte 28 Norte 0 -- -- 57
2019-06-09 01:00:00 16 13 Norte 27 Norte 0 -- -- 54
2019-06-09 00:00:00 17 8 Norte 18 Nordeste 0 -- -- 53
2019-06-08 23:00:00 18.2 3 Sudoeste 26 Norte 0 -- -- 49
2019-06-08 22:00:00 20.2 10 Norte 21 Norte 0 -- -- 43
2019-06-08 21:00:00 23.7 6 Sudoeste 17 Sur 0 -- -- 22
2019-06-08 20:00:00 24.4 9 Sudoeste 15 Sudoeste 0 -- -- 22
2019-06-08 19:00:00 25.3 5 Sur 16 Sur 0 -- -- 20
2019-06-08 18:00:00 25.8 8 Sur 18 Sur 0 -- -- 20
2019-06-08 17:00:00 25.3 9 Sur 21 Sur 0 -- -- 21
2019-06-08 16:00:00 25 5 Oeste 17 Sudoeste 0 -- -- 22
2019-06-08 15:00:00 23.5 8 Sudeste 25 Sudeste 0 -- -- 24
2019-06-08 14:00:00 23.5 9 Sudoeste 22 Sudeste 0 -- -- 25
2019-06-08 13:00:00 22.4 9 Sudoeste 19 Sudeste 0 -- -- 29
2019-06-08 12:00:00 21.3 6 Sur 17 Sudeste 0 -- -- 33
2019-06-08 11:00:00 20.7 6 Sudeste 17 Sur 0 -- -- 35
2019-06-08 10:00:00 19.7 4 Sudeste 10 Este 0 -- -- 38
2019-06-08 09:00:00 17.2 4 Nordeste 18 Nordeste 0 -- -- 44
2019-06-08 08:00:00 13.9 3 Norte 22 Norte 0 -- -- 53
2019-06-08 07:00:00 13.4 13 Norte 35 Nordeste 0 -- -- 53
2019-06-08 06:00:00 13.2 13 Norte 35 Norte 0 -- -- 54
2019-06-08 05:00:00 13.3 13 Norte 37 Nordeste 0 -- -- 55
2019-06-08 04:00:00 12.7 9 Norte 26 Norte 0 -- -- 58
2019-06-08 03:00:00 13.2 12 Norte 38 Norte 0 -- -- 56
2019-06-08 02:00:00 13 22 Norte 45 Norte 0 -- -- 58
2019-06-08 01:00:00 13.3 20 Norte 38 Norte 0 -- -- 55
2019-06-08 00:00:00 14.3 20 Norte 33 Norte 0 -- -- 51
2019-06-07 23:00:00 14.8 13 Norte 24 Norte 0 -- -- 50
2019-06-07 22:00:00 15.3 6 Norte 13 Norte 0 -- -- 48
2019-06-07 21:00:00 18.1 9 Noroeste 19 Norte 0 -- -- 39
2019-06-07 20:00:00 19.2 12 Norte 22 Norte 0 -- -- 35
2019-06-07 19:00:00 20.2 8 Noroeste 28 Noroeste 0 -- -- 30
2019-06-07 18:00:00 20 8 Noroeste 26 Norte 0 -- -- 33
2019-06-07 17:00:00 20.1 10 Noroeste 23 Norte 0 -- -- 36
2019-06-07 16:00:00 18.9 8 Noroeste 32 Norte 0 -- -- 36
2019-06-07 15:00:00 18.4 12 Norte 35 Noroeste 0 -- -- 40
2019-06-07 14:00:00 17.7 11 Noroeste 29 Noroeste 0 -- -- 40
2019-06-07 13:00:00 15.9 10 Norte 25 Nordeste 0 -- -- 48
2019-06-07 12:00:00 15.7 12 Norte 25 Norte 0 -- -- 50
2019-06-07 11:00:00 14.5 10 Noroeste 31 Noroeste 0 -- -- 57
2019-06-07 10:00:00 13.2 10 Noroeste 25 Noroeste 0 -- -- 60
2019-06-07 09:00:00 11.9 8 Noroeste 18 Noroeste 0 -- -- 71
2019-06-07 08:00:00 9.1 6 Noroeste 16 Oeste 0 -- -- 83
2019-06-07 07:00:00 6.3 6 Noroeste 14 Noroeste 0 -- -- 95
2019-06-07 06:00:00 6.2 4 Norte 10 Norte 0 -- -- 95
2019-06-07 05:00:00 6.6 7 Norte 10 Norte 0 -- -- 93
2019-06-07 04:00:00 7.4 4 Norte 10 Oeste 0 -- -- 92
2019-06-07 03:00:00 8.2 3 Noroeste 10 Norte 0 -- -- 93
2019-06-07 02:00:00 8.2 3 Norte 7 Norte 0 -- -- 92
2019-06-07 01:00:00 9.6 4 Oeste 10 Noroeste 0 -- -- 91
2019-06-07 00:00:00 11.2 5 Oeste 10 Oeste 0 -- -- 90
2019-06-06 23:00:00 12.1 2 Oeste 21 Oeste 0.2 -- -- 89
2019-06-06 22:00:00 12.7 14 Oeste 30 Sudoeste 1.8 -- -- 89
2019-06-06 21:00:00 14.4 12 Sudoeste 39 Sudoeste 0 -- -- 83
2019-06-06 20:00:00 16.4 22 Sudoeste 44 Sudoeste 0 -- -- 65
2019-06-06 19:00:00 17.6 21 Sudoeste 38 Sudoeste 0 -- -- 54
2019-06-06 18:00:00 18 19 Sudoeste 44 Oeste 0 -- -- 50
2019-06-06 17:00:00 19.1 20 Sudoeste 38 Sur 0 -- -- 45
2019-06-06 16:00:00 19.2 23 Sudoeste 44 Sudoeste 0 -- -- 44
2019-06-06 15:00:00 18.2 20 Sudoeste 38 Sur 0 -- -- 45
2019-06-06 14:00:00 18.3 15 Sur 28 Sudoeste 0 -- -- 43
2019-06-06 13:00:00 17.7 12 Sudoeste 33 Sudoeste 0 -- -- 42
2019-06-06 12:00:00 16.9 9 Sur 20 Sur 0 -- -- 44
2019-06-06 11:00:00 15.4 8 Sur 15 Sudeste 0 -- -- 46
2019-06-06 10:00:00 13.6 7 Sur 15 Sudoeste 0 -- -- 54
2019-06-06 09:00:00 11.4 2 Sur 5 Sudeste 0 -- -- 63
2019-06-06 08:00:00 8.7 0 Calma 6 Norte 0 -- -- 70
2019-06-06 07:00:00 7.4 0 Calma 5 Nordeste 0 -- -- 74
2019-06-06 06:00:00 8.8 4 Norte 12 Norte 0 -- -- 68
2019-06-06 05:00:00 10.1 9 Norte 15 Norte 0 -- -- 65
2019-06-06 04:00:00 10.9 10 Norte 30 Norte 0 -- -- 64
2019-06-06 03:00:00 11.5 10 Norte 21 Norte 0 -- -- 57
2019-06-06 02:00:00 11.4 6 Norte 17 Norte 0 -- -- 59
2019-06-06 01:00:00 11.8 3 Nordeste 20 Sur 0 -- -- 60
2019-06-06 00:00:00 12.8 5 Noroeste 25 Norte 0 -- -- 57
2019-06-05 23:00:00 13.9 7 Norte 23 Norte 0 -- -- 53
2019-06-05 22:00:00 14.6 12 Noroeste 28 Oeste 0 -- -- 49
2019-06-05 21:00:00 15.9 12 Noroeste 27 Norte 0 -- -- 41
2019-06-05 20:00:00 17.4 12 Noroeste 31 Noroeste 0 -- -- 39
2019-06-05 19:00:00 18.4 10 Noroeste 28 Oeste 0 -- -- 36
2019-06-05 18:00:00 20.1 8 Norte 36 Sudoeste 0 -- -- 31
2019-06-05 17:00:00 20.5 16 Oeste 36 Noroeste 0 -- -- 34
2019-06-05 16:00:00 20.5 14 Oeste 26 Noroeste 0 -- -- 32
2019-06-05 15:00:00 19.1 10 Noroeste 35 Oeste 0 -- -- 36
2019-06-05 14:00:00 17.9 15 Noroeste 33 Oeste 0 -- -- 38
2019-06-05 13:00:00 16.8 9 Noroeste 32 Noroeste 0 -- -- 43
2019-06-05 12:00:00 16.9 14 Noroeste 36 Norte 0 -- -- 44
2019-06-05 11:00:00 15.6 18 Noroeste 36 Oeste 0 -- -- 47
2019-06-05 10:00:00 14.3 10 Oeste 33 Noroeste 0 -- -- 54
2019-06-05 09:00:00 13 14 Noroeste 34 Noroeste 0 -- -- 59
2019-06-05 08:00:00 11.4 8 Noroeste 22 Noroeste 0 -- -- 65
2019-06-05 07:00:00 10.2 5 Noroeste 15 Noroeste 0 -- -- 70
2019-06-05 06:00:00 10.6 5 Oeste 17 Noroeste 0 -- -- 69
2019-06-05 05:00:00 10.5 5 Noroeste 14 Noroeste 0 -- -- 71
2019-06-05 04:00:00 10.9 6 Noroeste 31 Noroeste 0 -- -- 69
2019-06-05 03:00:00 11.4 14 Norte 38 Noroeste 0 -- -- 66
2019-06-05 02:00:00 12.1 23 Noroeste 41 Norte 0 -- -- 64
2019-06-05 01:00:00 12.6 18 Noroeste 47 Noroeste 0 -- -- 65
2019-06-05 00:00:00 13.5 24 Norte 46 Noroeste 0 -- -- 62
2019-06-04 23:00:00 14.5 19 Norte 40 Noroeste 0 -- -- 55
2019-06-04 22:00:00 16.9 6 Noroeste 22 Oeste 0 -- -- 50
2019-06-04 21:00:00 18.2 12 Oeste 29 Oeste 0 -- -- 43
2019-06-04 20:00:00 20 12 Oeste 28 Sudoeste 0 -- -- 46
2019-06-04 19:00:00 20.1 11 Sudoeste 27 Sudoeste 0 -- -- 43
2019-06-04 18:00:00 20.3 17 Oeste 34 Oeste 0 -- -- 46
2019-06-04 17:00:00 21.6 19 Oeste 33 Sudoeste 0 -- -- 49
2019-06-04 16:00:00 23.5 21 Sudoeste 34 Oeste 0 -- -- 47
2019-06-04 15:00:00 23.3 16 Sudoeste 32 Oeste 0 -- -- 45
2019-06-04 14:00:00 23.3 10 Sur 23 Oeste 0 -- -- 43
2019-06-04 13:00:00 22.5 11 Sudoeste 21 Oeste 0 -- -- 48
2019-06-04 12:00:00 22.2 6 Sudeste 19 Sudeste 0 -- -- 48
2019-06-04 11:00:00 20 8 Sur 15 Sur 0 -- -- 54
2019-06-04 10:00:00 18.5 4 Sur 9 Sur 0 -- -- 63
2019-06-04 09:00:00 16.4 3 Sur 6 Sudeste 0 -- -- 69
2019-06-04 08:00:00 13.3 2 Nordeste 8 Norte 0 -- -- 80
2019-06-04 07:00:00 12.6 0 Calma 4 Noroeste 0 -- -- 82
2019-06-04 06:00:00 12.6 3 Norte 5 Norte 0 -- -- 80
2019-06-04 05:00:00 13 3 Norte 10 Norte 0 -- -- 77
2019-06-04 04:00:00 13.7 0 Calma 10 Norte 0 -- -- 71
2019-06-04 03:00:00 14.4 4 Norte 8 Norte 0 -- -- 66
2019-06-04 02:00:00 15.9 2 Norte 10 Norte 0 -- -- 64
2019-06-04 01:00:00 17.4 0 Calma 6 Norte 0 -- -- 64
2019-06-04 00:00:00 19.8 3 Noroeste 8 Noroeste 0 -- -- 58
2019-06-03 23:00:00 20.9 3 Noroeste 12 Oeste 0 -- -- 56
2019-06-03 22:00:00 23.1 9 Oeste 24 Oeste 0 -- -- 51
2019-06-03 21:00:00 25.5 14 Oeste 31 Oeste 0 -- -- 45
2019-06-03 20:00:00 28.1 17 Oeste 33 Sudoeste 0 -- -- 39
2019-06-03 19:00:00 29.5 22 Oeste 33 Oeste 0 -- -- 32
2019-06-03 18:00:00 30.5 18 Sudoeste 33 Sudoeste 0 -- -- 29
2019-06-03 17:00:00 30.9 13 Sudoeste 32 Sudoeste 0 -- -- 26
2019-06-03 16:00:00 30.7 12 Sudoeste 29 Sudoeste 0 -- -- 23
2019-06-03 15:00:00 30.3 8 Sudoeste 27 Sudoeste 0 -- -- 22
2019-06-03 14:00:00 29.6 11 Sur 19 Sur 0 -- -- 22
2019-06-03 13:00:00 28.2 9 Sudoeste 19 Sur 0 -- -- 21
2019-06-03 12:00:00 27.3 10 Sudeste 17 Sudeste 0 -- -- 24
2019-06-03 11:00:00 26.1 10 Sur 16 Sudoeste 0 -- -- 30
2019-06-03 10:00:00 25.1 6 Sudeste 21 Nordeste 0 -- -- 31
2019-06-03 09:00:00 22.1 0 Calma 13 Nordeste 0 -- -- 39
2019-06-03 08:00:00 18.6 4 Nordeste 13 Nordeste 0 -- -- 42
2019-06-03 07:00:00 16.3 8 Norte 11 Norte 0 -- -- 45
2019-06-03 06:00:00 16.7 4 Noroeste 8 Noroeste 0 -- -- 44
2019-06-03 05:00:00 17.3 5 Norte 10 Este 0 -- -- 43
2019-06-03 04:00:00 20 2 Nordeste 11 Nordeste 0 -- -- 39
2019-06-03 03:00:00 22 5 Nordeste 19 Nordeste 0 -- -- 34
2019-06-03 02:00:00 22.3 4 Norte 27 Norte 0 -- -- 34
2019-06-03 01:00:00 23.3 13 Norte 30 Norte 0 -- -- 33
2019-06-03 00:00:00 23.8 13 Norte 27 Norte 0 -- -- 35
2019-06-02 23:00:00 24.3 11 Norte 23 Norte 0 -- -- 33
2019-06-02 22:00:00 26.4 2 Noroeste 15 Norte 0 -- -- 29
2019-06-02 21:00:00 28.7 6 Oeste 21 Oeste 0 -- -- 23
2019-06-02 20:00:00 30.4 11 Oeste 27 Oeste 0 -- -- 22
2019-06-02 19:00:00 32.4 14 Oeste 35 Oeste 0 -- -- 19
2019-06-02 18:00:00 32.9 14 Oeste 32 Oeste 0 -- -- 18
2019-06-02 17:00:00 32.9 13 Sudoeste 29 Sudoeste 0 -- -- 18
2019-06-02 16:00:00 33.6 17 Sudoeste 34 Sur 0 -- -- 17
2019-06-02 15:00:00 32.8 13 Oeste 28 Oeste 0 -- -- 17
2019-06-02 14:00:00 32.8 11 Oeste 25 Sur 0 -- -- 18
2019-06-02 13:00:00 32 12 Sudeste 19 Sudeste 0 -- -- 20
2019-06-02 12:00:00 31.1 7 Sur 15 Sudeste 0 -- -- 19
2019-06-02 11:00:00 30 8 Sudeste 14 Sudeste 0 -- -- 23
2019-06-02 10:00:00 27.8 4 Sur 8 Sur 0 -- -- 23
2019-06-02 09:00:00 25.5 3 Sudoeste 6 Sur 0 -- -- 30
2019-06-02 08:00:00 24.4 2 Noroeste 26 Nordeste 0 -- -- 25
2019-06-02 07:00:00 23.9 3 Sur 17 Nordeste 0 -- -- 20
2019-06-02 06:00:00 24.2 5 Sudoeste 16 Sudoeste 0 -- -- 22
2019-06-02 05:00:00 23.9 5 Sur 23 Nordeste 0 -- -- 23
2019-06-02 04:00:00 24.9 11 Norte 37 Norte 0 -- -- 21
2019-06-02 03:00:00 23.9 5 Sudoeste 9 Sudoeste 0 -- -- 29
2019-06-02 02:00:00 24.8 7 Sudoeste 21 Norte 0 -- -- 29
2019-06-02 01:00:00 25.5 5 Nordeste 30 Norte 0 -- -- 28
2019-06-02 00:00:00 26.3 19 Norte 37 Norte 0 -- -- 28
2019-06-01 23:00:00 27 18 Norte 33 Norte 0 -- -- 29
2019-06-01 22:00:00 26.1 8 Norte 13 Norte 0 -- -- 33
2019-06-01 21:00:00 30.9 5 Norte 12 Norte 0 -- -- 27
2019-06-01 20:00:00 33.4 6 Sur 16 Sudoeste 0 -- -- 19
2019-06-01 19:00:00 33.7 7 Sudoeste 18 Sudoeste 0 -- -- 18
2019-06-01 18:00:00 34.4 8 Sur 18 Sudeste 0 -- -- 18
2019-06-01 17:00:00 34.2 5 Sudeste 17 Este 0 -- -- 19
2019-06-01 16:00:00 33.2 6 Este 16 Sudeste 0 -- -- 19
2019-06-01 15:00:00 32.6 6 Sur 17 Sudeste 0 -- -- 21
2019-06-01 14:00:00 31.4 8 Sudoeste 17 Sudeste 0 -- -- 23
2019-06-01 13:00:00 30.3 5 Sur 17 Sur 0 -- -- 25
2019-06-01 12:00:00 29.2 8 Sur 19 Sudeste 0 -- -- 26
2019-06-01 11:00:00 28.1 6 Sur 14 Sudeste 0 -- -- 28
2019-06-01 10:00:00 25.7 6 Sur 10 Sur 0 -- -- 32
2019-06-01 09:00:00 22.7 3 Este 6 Este 0 -- -- 50
2019-06-01 08:00:00 19.7 0 Calma 5 Norte 0 -- -- 49
2019-06-01 07:00:00 18.6 0 Calma 7 Sudeste 0 -- -- 50
2019-06-01 06:00:00 20.5 3 Norte 17 Sudoeste 0 -- -- 45
2019-06-01 05:00:00 23.6 6 Sur 27 Nordeste 0 -- -- 38
2019-06-01 04:00:00 24.9 12 Norte 26 Nordeste 0 -- -- 36
2019-06-01 03:00:00 24.9 4 Noroeste 9 Noroeste 0 -- -- 33
2019-06-01 02:00:00 25.2 5 Nordeste 16 Nordeste 0 -- -- 32
2019-06-01 01:00:00 23.9 5 Norte 14 Nordeste 0 -- -- 33
2019-06-01 00:00:00 23.5 0 Calma 2 Este 0 -- -- 34
2019-05-31 23:00:00 24.5 0 Calma 7 Nordeste 0 -- -- 34
2019-05-31 22:00:00 25.8 6 Nordeste 11 Norte 0 -- -- 35
2019-05-31 21:00:00 31 5 Noroeste 10 Noroeste 0 -- -- 24
2019-05-31 20:00:00 32.8 6 Noroeste 14 Noroeste 0 -- -- 20
2019-05-31 19:00:00 32.9 10 Sudeste 21 Sudoeste 0 -- -- 20
2019-05-31 18:00:00 33.4 6 Sudoeste 18 Sur 0 -- -- 20
2019-05-31 17:00:00 33 8 Sudeste 18 Oeste 0 -- -- 20
2019-05-31 16:00:00 32.9 5 Sudoeste 19 Sudeste 0 -- -- 20
2019-05-31 15:00:00 31.7 8 Sudoeste 17 Sur 0 -- -- 21
2019-05-31 14:00:00 31.1 7 Sudeste 15 Sudeste 0 -- -- 23
2019-05-31 13:00:00 29.9 4 Sudeste 16 Sudeste 0 -- -- 25
2019-05-31 12:00:00 28.8 9 Sur 17 Sudeste 0 -- -- 25
2019-05-31 11:00:00 27.6 9 Sur 17 Sur 0 -- -- 26
2019-05-31 10:00:00 25.4 2 Sudoeste 9 Sudeste 0 -- -- 33
2019-05-31 09:00:00 21.9 4 Sudoeste 8 Oeste 0 -- -- 39
2019-05-31 08:00:00 20.2 5 Norte 9 Noroeste 0 -- -- 41
2019-05-31 07:00:00 16.7 8 Norte 17 Noroeste 0 -- -- 47
2019-05-31 06:00:00 16.5 3 Sur 23 Sudeste 0 -- -- 49
2019-05-31 05:00:00 17.3 6 Sudoeste 10 Sur 0 -- -- 45
2019-05-31 04:00:00 21.2 3 Sur 10 Norte 0 -- -- 35
2019-05-31 03:00:00 21.1 5 Nordeste 14 Norte 0 -- -- 36
2019-05-31 02:00:00 21.3 11 Norte 12 Norte 0 -- -- 34
2019-05-31 01:00:00 22.1 5 Norte 10 Norte 0 -- -- 31
2019-05-31 00:00:00 23.6 8 Norte 12 Norte 0 -- -- 27
2019-05-30 23:00:00 24.6 7 Nordeste 17 Nordeste 0 -- -- 25
2019-05-30 22:00:00 24.7 2 Este 12 Norte 0 -- -- 28
2019-05-30 21:00:00 29.3 5 Nordeste 10 Sudeste 0 -- -- 28
2019-05-30 20:00:00 30.9 6 Este 14 Sur 0 -- -- 24
2019-05-30 19:00:00 31.4 6 Sudeste 15 Sudoeste 0 -- -- 23
2019-05-30 18:00:00 31.7 10 Sur 23 Este 0 -- -- 24
2019-05-30 17:00:00 31.3 8 Este 24 Sudeste 0 -- -- 24
2019-05-30 16:00:00 30.7 9 Sudeste 21 Sur 0 -- -- 27
2019-05-30 15:00:00 30.1 8 Sudeste 19 Sudeste 0 -- -- 27
2019-05-30 14:00:00 28.9 10 Sur 19 Sudeste 0 -- -- 29
2019-05-30 13:00:00 26.4 6 Noroeste 14 Sur 0 -- -- 33
2019-05-30 12:00:00 25.8 7 Sur 15 Sur 0 -- -- 33
2019-05-30 11:00:00 24.4 5 Sur 11 Sudeste 0 -- -- 35
2019-05-30 10:00:00 22.2 7 Sur 11 Sudoeste 0 -- -- 39
2019-05-30 09:00:00 19.7 3 Sudeste 5 Sudeste 0 -- -- 46
2019-05-30 08:00:00 16.5 2 Noroeste 9 Noroeste 0 -- -- 53
2019-05-30 07:00:00 15.2 4 Norte 10 Norte 0 -- -- 52
2019-05-30 06:00:00 17.5 5 Norte 15 Sudoeste 0 -- -- 43
2019-05-30 05:00:00 18.3 5 Sudoeste 9 Sur 0 -- -- 42
2019-05-30 04:00:00 21 0 Calma 31 Nordeste 0 -- -- 36
2019-05-30 03:00:00 21.5 18 Nordeste 30 Nordeste 0 -- -- 34
2019-05-30 02:00:00 21.7 16 Nordeste 40 Nordeste 0 -- -- 32
2019-05-30 01:00:00 21.5 22 Nordeste 37 Nordeste 0 -- -- 31
2019-05-30 00:00:00 21.5 13 Nordeste 30 Norte 0 -- -- 35
2019-05-29 23:00:00 22.7 15 Norte 29 Nordeste 0 -- -- 31
2019-05-29 22:00:00 24.2 15 Norte 31 Norte 0 -- -- 31
2019-05-29 21:00:00 26.2 15 Nordeste 26 Nordeste 0 -- -- 28
2019-05-29 20:00:00 27.8 16 Nordeste 36 Nordeste 0 -- -- 26
2019-05-29 19:00:00 28.5 21 Nordeste 35 Nordeste 0 -- -- 24
2019-05-29 18:00:00 29.1 16 Nordeste 34 Nordeste 0 -- -- 23
2019-05-29 17:00:00 29.3 17 Nordeste 33 Norte 0 -- -- 22
2019-05-29 16:00:00 28.9 15 Nordeste 28 Nordeste 0 -- -- 25
2019-05-29 15:00:00 28.2 12 Nordeste 25 Nordeste 0 -- -- 27
2019-05-29 14:00:00 27.2 14 Nordeste 32 Nordeste 0 -- -- 28
2019-05-29 13:00:00 25.3 17 Nordeste 37 Nordeste 0 -- -- 30
2019-05-29 12:00:00 23.5 18 Nordeste 39 Nordeste 0 -- -- 33
2019-05-29 11:00:00 21.5 8 Nordeste 27 Nordeste 0 -- -- 36
2019-05-29 10:00:00 19 15 Norte 31 Norte 0 -- -- 39
2019-05-29 09:00:00 17.3 12 Nordeste 32 Nordeste 0 -- -- 42
2019-05-29 08:00:00 16.2 6 Nordeste 32 Nordeste 0 -- -- 42
2019-05-29 07:00:00 15.5 14 Nordeste 37 Nordeste 0 -- -- 42
2019-05-29 06:00:00 16.4 11 Nordeste 32 Nordeste 0 -- -- 40
2019-05-29 05:00:00 17.4 11 Nordeste 44 Nordeste 0 -- -- 39
2019-05-29 04:00:00 18 14 Nordeste 56 Nordeste 0 -- -- 40
2019-05-29 03:00:00 18.1 29 Nordeste 50 Nordeste 0 -- -- 41
2019-05-29 02:00:00 19.4 21 Nordeste 39 Nordeste 0 -- -- 35
2019-05-29 01:00:00 20.3 18 Nordeste 38 Nordeste 0 -- -- 34
2019-05-29 00:00:00 21.1 9 Norte 21 Nordeste 0 -- -- 32
2019-05-28 23:00:00 21.3 12 Nordeste 18 Este 0 -- -- 33
2019-05-28 22:00:00 23.1 9 Norte 23 Nordeste 0 -- -- 30
2019-05-28 21:00:00 25 13 Nordeste 31 Nordeste 0 -- -- 28
2019-05-28 20:00:00 26.5 18 Nordeste 35 Nordeste 0 -- -- 25
2019-05-28 19:00:00 27.2 23 Nordeste 43 Norte 0 -- -- 25
2019-05-28 18:00:00 27.8 19 Norte 45 Nordeste 0 -- -- 23
2019-05-28 17:00:00 27.7 17 Nordeste 41 Nordeste 0 -- -- 22
2019-05-28 16:00:00 27.1 27 Nordeste 50 Este 0 -- -- 22
2019-05-28 15:00:00 25.9 21 Nordeste 50 Nordeste 0 -- -- 24
2019-05-28 14:00:00 24.8 12 Norte 44 Nordeste 0 -- -- 25
2019-05-28 13:00:00 24.1 13 Norte 45 Nordeste 0 -- -- 29
2019-05-28 12:00:00 22.9 28 Nordeste 49 Nordeste 0 -- -- 32
2019-05-28 11:00:00 21.5 23 Norte 46 Nordeste 0 -- -- 40
2019-05-28 10:00:00 21 24 Nordeste 45 Nordeste 0 -- -- 41
2019-05-28 09:00:00 19.7 22 Nordeste 42 Norte 0 -- -- 45
2019-05-28 08:00:00 16.8 22 Nordeste 39 Nordeste 0 -- -- 56
2019-05-28 07:00:00 16.9 9 Norte 32 Nordeste 0 -- -- 58
2019-05-28 06:00:00 17.8 9 Este 38 Nordeste 0 -- -- 55
2019-05-28 05:00:00 18 10 Nordeste 30 Nordeste 0 -- -- 54
2019-05-28 04:00:00 18.4 6 Norte 44 Norte 0 -- -- 51
2019-05-28 03:00:00 19 20 Norte 44 Norte 0 -- -- 49
2019-05-28 02:00:00 19.8 9 Norte 26 Este 0 -- -- 48
2019-05-28 01:00:00 20.4 5 Sudoeste 33 Norte 0 -- -- 54
2019-05-28 00:00:00 21.1 11 Norte 32 Norte 0 -- -- 59
2019-05-27 23:00:00 22.4 7 Noroeste 22 Norte 0 -- -- 55
2019-05-27 22:00:00 23.9 6 Noroeste 21 Noroeste 0 -- -- 44
2019-05-27 21:00:00 25.9 13 Noroeste 23 Noroeste 0 -- -- 44
2019-05-27 20:00:00 27.4 4 Norte 30 Noroeste 0 -- -- 40
2019-05-27 19:00:00 28 16 Noroeste 30 Noroeste 0 -- -- 37
2019-05-27 18:00:00 28.3 11 Noroeste 33 Norte 0 -- -- 33
2019-05-27 17:00:00 28.9 10 Norte 32 Noroeste 0 -- -- 29
2019-05-27 16:00:00 28.6 17 Noroeste 33 Noroeste 0 -- -- 29
2019-05-27 15:00:00 28.1 20 Noroeste 34 Noroeste 0 -- -- 33
2019-05-27 14:00:00 28.3 12 Noroeste 31 Oeste 0 -- -- 34
2019-05-27 13:00:00 27.3 11 Norte 22 Nordeste 0 -- -- 36
2019-05-27 12:00:00 26.5 14 Nordeste 28 Nordeste 0 -- -- 39
2019-05-27 11:00:00 24.5 13 Norte 26 Nordeste 0 -- -- 44
2019-05-27 10:00:00 22.6 11 Nordeste 28 Norte 0 -- -- 48
2019-05-27 09:00:00 20.6 12 Nordeste 38 Noroeste 0 -- -- 51
2019-05-27 08:00:00 20.2 24 Norte 44 Norte 0 -- -- 51
2019-05-27 07:00:00 20 12 Norte 36 Nordeste 0 -- -- 51
2019-05-27 06:00:00 20 11 Nordeste 28 Nordeste 0 -- -- 52
2019-05-27 05:00:00 20.8 13 Este 32 Este 0 -- -- 50
2019-05-27 04:00:00 21.3 5 Este 27 Este 0 -- -- 45
2019-05-27 03:00:00 22 10 Nordeste 30 Nordeste 0 -- -- 44
2019-05-27 02:00:00 21.6 7 Norte 33 Norte 0 -- -- 51
2019-05-27 01:00:00 21.8 18 Norte 32 Noroeste 0 -- -- 52
2019-05-27 00:00:00 22.5 10 Noroeste 19 Noroeste 0 -- -- 47
2019-05-26 23:00:00 22 9 Noroeste 20 Noroeste 0 -- -- 40
2019-05-26 22:00:00 23.3 8 Noroeste 17 Norte 0 -- -- 38
2019-05-26 21:00:00 26.9 9 Norte 24 Norte 0 -- -- 30
2019-05-26 20:00:00 28.6 14 Norte 31 Norte 0 -- -- 28
2019-05-26 19:00:00 28.9 14 Nordeste 38 Norte 0 -- -- 27
2019-05-26 18:00:00 28.9 18 Norte 37 Norte 0 -- -- 27
2019-05-26 17:00:00 29 15 Norte 36 Norte 0 -- -- 28
2019-05-26 16:00:00 28.5 15 Norte 33 Nordeste 0 -- -- 29
2019-05-26 15:00:00 27.6 17 Nordeste 40 Norte 0 -- -- 30
2019-05-26 14:00:00 26.1 19 Norte 35 Nordeste 0 -- -- 33
2019-05-26 13:00:00 25.3 14 Nordeste 34 Nordeste 0 -- -- 35
2019-05-26 12:00:00 23.2 21 Nordeste 32 Nordeste 0 -- -- 38
2019-05-26 11:00:00 22.2 11 Nordeste 25 Norte 0 -- -- 40
2019-05-26 10:00:00 20.3 9 Norte 25 Nordeste 0 -- -- 43
2019-05-26 09:00:00 18.6 9 Norte 29 Nordeste 0 -- -- 44
2019-05-26 08:00:00 17 15 Norte 27 Nordeste 0 -- -- 45
2019-05-26 07:00:00 14.9 11 Norte 22 Nordeste 0 -- -- 48
2019-05-26 06:00:00 16.5 13 Nordeste 23 Nordeste 0 -- -- 46
2019-05-26 05:00:00 16.1 2 Oeste 15 Este 0 -- -- 47
2019-05-26 04:00:00 17.3 5 Norte 24 Nordeste 0 -- -- 42
2019-05-26 03:00:00 16.1 4 Nordeste 9 Nordeste 0 -- -- 44
2019-05-26 02:00:00 16.8 4 Nordeste 13 Norte 0 -- -- 44
2019-05-26 01:00:00 17.2 3 Norte 18 Nordeste 0 -- -- 43
2019-05-26 00:00:00 19.2 7 Nordeste 18 Nordeste 0 -- -- 37
2019-05-25 23:00:00 20.8 8 Este 17 Este 0 -- -- 34
2019-05-25 22:00:00 21.5 2 Sur 21 Nordeste 0 -- -- 32
2019-05-25 21:00:00 23.6 15 Nordeste 29 Nordeste 0 -- -- 28
2019-05-25 20:00:00 24.8 18 Nordeste 38 Norte 0 -- -- 27
2019-05-25 19:00:00 25.3 25 Nordeste 39 Nordeste 0 -- -- 25
2019-05-25 18:00:00 25.6 19 Nordeste 35 Nordeste 0 -- -- 27
2019-05-25 17:00:00 25.7 21 Nordeste 39 Nordeste 0 -- -- 27
2019-05-25 16:00:00 25.4 24 Nordeste 39 Nordeste 0 -- -- 28
2019-05-25 15:00:00 24.8 14 Nordeste 38 Nordeste 0 -- -- 31
2019-05-25 14:00:00 23.5 24 Nordeste 41 Nordeste 0 -- -- 34
2019-05-25 13:00:00 22.3 23 Nordeste 39 Nordeste 0 -- -- 36
2019-05-25 12:00:00 21 16 Nordeste 33 Nordeste 0 -- -- 40
2019-05-25 11:00:00 19.6 19 Nordeste 35 Nordeste 0 -- -- 40
2019-05-25 10:00:00 18 12 Norte 48 Este 0 -- -- 46
2019-05-25 09:00:00 16.1 24 Nordeste 46 Norte 0 -- -- 52
2019-05-25 08:00:00 15.2 20 Nordeste 41 Nordeste 0 -- -- 54
2019-05-25 07:00:00 13.5 20 Nordeste 53 Nordeste 0 -- -- 60
2019-05-25 06:00:00 13.7 19 Norte 40 Norte 0 -- -- 59
2019-05-25 05:00:00 14.2 7 Sudeste 38 Este 0 -- -- 56
2019-05-25 04:00:00 15 14 Este 32 Este 0 -- -- 51
2019-05-25 03:00:00 16.2 7 Nordeste 23 Este 0 -- -- 46
2019-05-25 02:00:00 17.4 12 Nordeste 46 Nordeste 0 -- -- 43
2019-05-25 01:00:00 18.9 30 Nordeste 50 Nordeste 0 -- -- 36
2019-05-25 00:00:00 19.9 6 Este 26 Noroeste 0 -- -- 29